Time;durP1;ratioP1;P1;durP2;ratioP2;P2;SDS_P1;SDS_P2;PMS_P1;PMS_P2;Temp;Humidity;BMP_temperature;BMP_pressure;BME280_temperature;BME280_humidity;BME280_pressure;Samples;Min_cycle;Max_cycle;Signal;HPM_P1;HPM_P2
2022/01/19 00:02:01;;;;;;;26.05;17.63;;;;;;;4.48;83.52;101471.25;5032730;28;20091;-63
2022/01/19 00:04:27;;;;;;;27.15;17.98;;;;;;;4.48;83.13;101472.94;5032742;28;20034;-63
2022/01/19 00:06:52;;;;;;;26.90;17.20;;;;;;;4.48;83.18;101486.66;5015227;28;20114;-63
2022/01/19 00:09:18;;;;;;;28.27;18.13;;;;;;;4.48;83.68;101484.09;5032908;28;20507;-63
2022/01/19 00:11:43;;;;;;;29.80;18.42;;;;;;;4.47;83.29;101487.44;5033312;28;20045;-63
2022/01/19 00:14:09;;;;;;;26.13;18.05;;;;;;;4.47;83.20;101487.44;5032859;28;20370;-63
2022/01/19 00:16:34;;;;;;;24.42;16.80;;;;;;;4.46;83.19;101482.22;5032786;28;20080;-63
2022/01/19 00:19:00;;;;;;;26.15;18.30;;;;;;;4.46;83.30;101483.09;5032804;28;20038;-63
2022/01/19 00:21:25;;;;;;;25.75;16.73;;;;;;;4.46;83.45;101485.66;5014819;28;20034;-64
2022/01/19 00:23:51;;;;;;;28.20;18.13;;;;;;;4.46;83.16;101467.69;5033271;28;20041;-63
2022/01/19 00:26:21;;;;;;;24.33;17.27;;;;;;;4.45;83.00;101459.91;5017375;28;20168;-63
2022/01/19 00:28:47;;;;;;;27.40;17.67;;;;;;;4.44;83.22;101438.47;5002678;28;20029;-63
2022/01/19 00:31:17;;;;;;;27.75;17.27;;;;;;;4.44;83.59;101430.75;5018920;28;20052;-62
2022/01/19 00:33:43;;;;;;;24.08;15.93;;;;;;;4.44;82.99;101414.47;5035753;28;20029;-63
2022/01/19 00:36:08;;;;;;;31.02;20.15;;;;;;;4.42;83.24;101417.84;5035850;28;20079;-62
2022/01/19 00:38:34;;;;;;;27.63;18.38;;;;;;;4.39;83.27;101403.94;5018580;28;20041;-63
2022/01/19 00:41:01;;;;;;;25.80;18.77;;;;;;;4.37;83.24;101402.94;5036263;28;20040;-62
2022/01/19 00:43:28;;;;;;;28.63;17.90;;;;;;;4.33;83.06;101406.09;5035852;28;20073;-63
2022/01/19 00:45:54;;;;;;;29.33;18.00;;;;;;;4.30;83.22;101404.25;5035928;28;20037;-63
2022/01/19 00:48:19;;;;;;;30.92;18.95;;;;;;;4.29;83.03;101410.16;5035461;28;20059;-63
2022/01/19 00:50:45;;;;;;;28.45;19.30;;;;;;;4.23;82.88;101415.78;5035785;28;20435;-63
2022/01/19 00:53:10;;;;;;;32.50;20.45;;;;;;;4.20;82.70;101405.34;5018409;28;20030;-63
2022/01/19 00:55:38;;;;;;;30.40;19.17;;;;;;;4.19;83.28;101418.06;5018156;28;20045;-63
2022/01/19 00:58:04;;;;;;;26.25;17.63;;;;;;;4.15;82.86;101416.97;5001600;28;20040;-63
2022/01/19 01:00:29;;;;;;;29.95;19.58;;;;;;;4.13;83.25;101408.28;5035254;28;20121;-63
2022/01/19 01:02:55;;;;;;;33.03;19.75;;;;;;;4.12;82.38;101403.97;5017905;28;20042;-63
2022/01/19 01:05:22;;;;;;;30.95;18.90;;;;;;;4.11;83.05;101391.94;5035075;28;20033;-63
2022/01/19 01:07:48;;;;;;;33.50;19.50;;;;;;;4.10;83.25;101385.88;5035812;28;20457;-63
2022/01/19 01:10:15;;;;;;;31.88;20.75;;;;;;;4.06;83.11;101395.88;5017852;28;20538;-63
2022/01/19 01:12:45;;;;;;;35.55;20.95;;;;;;;4.03;83.06;101396.56;5017866;28;20061;-63
2022/01/19 01:20:36;;;;;;;32.38;18.10;;;;;;;4.00;82.93;101383.53;5018474;28;20042;-62
2022/01/19 01:23:03;;;;;;;31.42;16.85;;;;;;;4.00;83.20;101378.41;5017617;28;20033;-63
2022/01/19 01:25:29;;;;;;;24.45;17.38;;;;;;;4.01;82.92;101377.63;5001201;28;20396;-64
2022/01/19 01:27:57;;;;;;;29.88;17.63;;;;;;;4.03;82.63;101367.44;5035083;28;20044;-64
2022/01/19 01:30:23;;;;;;;25.92;16.88;;;;;;;4.04;83.28;101356.38;5034635;28;20580;-63
2022/01/19 01:32:51;;;;;;;23.27;15.48;;;;;;;4.04;83.27;101349.59;5034760;28;20132;-63
2022/01/19 01:35:17;;;;;;;26.70;17.92;;;;;;;4.03;83.33;101342.69;5000694;28;20037;-63
2022/01/19 01:37:42;;;;;;;21.48;14.95;;;;;;;4.01;82.71;101336.56;5034837;28;20087;-63
2022/01/19 01:40:12;;;;;;;25.15;14.70;;;;;;;4.01;82.71;101335.66;5034914;28;20523;-63
2022/01/19 01:42:38;;;;;;;19.08;14.40;;;;;;;3.99;83.12;101334.69;5017220;28;20473;-64
2022/01/19 01:45:04;;;;;;;24.52;15.07;;;;;;;3.96;82.80;101343.97;5034552;28;20044;-64
2022/01/19 01:47:32;;;;;;;19.70;12.85;;;;;;;3.95;82.35;101351.56;5000777;28;20044;-63
2022/01/19 01:55:17;;;;;;;20.95;13.27;;;;;;;3.94;82.54;101365.16;5034483;28;20033;-64
2022/01/19 01:57:43;;;;;;;18.83;13.43;;;;;;;3.92;82.78;101359.06;5034518;28;20042;-63
2022/01/19 02:00:12;;;;;;;24.88;16.33;;;;;;;3.92;82.22;101365.09;5034554;28;20529;-63
2022/01/19 02:02:40;;;;;;;19.13;13.57;;;;;;;3.90;82.97;101356.41;5016751;28;20129;-63
2022/01/19 02:05:10;;;;;;;19.55;13.90;;;;;;;3.89;82.88;101352.06;5034694;28;20033;-62
2022/01/19 02:08:01;;;;;;;21.77;13.05;;;;;;;3.89;82.69;101335.78;5016682;28;20087;-63
2022/01/19 02:16:08;;;;;;;17.17;13.32;;;;;;;3.89;82.35;101311.00;5034421;28;20041;-63
2022/01/19 02:24:14;;;;;;;19.98;13.55;;;;;;;3.89;82.73;101280.25;5033718;28;20037;-63
2022/01/19 02:26:57;;;;;;;18.42;14.05;;;;;;;3.86;82.84;101272.34;4999845;28;20033;-63
2022/01/19 02:40:24;;;;;;;20.05;14.65;;;;;;;3.86;82.25;101256.09;5033808;28;20052;-62
2022/01/19 02:50:38;;;;;;;19.60;15.60;;;;;;;3.83;82.17;101219.97;5016383;28;20124;-62
2022/01/19 02:53:03;;;;;;;19.25;15.88;;;;;;;3.84;82.49;101222.63;5033924;28;20046;-62
2022/01/19 02:55:30;;;;;;;19.85;16.67;;;;;;;3.84;82.25;101214.94;5015981;28;20397;-63
2022/01/19 02:57:56;;;;;;;20.20;15.75;;;;;;;3.84;82.51;101212.38;5015856;28;20504;-63
2022/01/19 03:08:50;;;;;;;20.92;15.52;;;;;;;3.85;82.22;101198.75;5033343;28;20167;-63
2022/01/19 03:11:19;;;;;;;19.58;14.48;;;;;;;3.90;82.38;101209.28;5033708;28;20072;-63
2022/01/19 03:13:47;;;;;;;20.02;14.70;;;;;;;3.89;82.30;101208.41;4999364;28;20092;-63
2022/01/19 03:16:13;;;;;;;19.17;15.38;;;;;;;3.89;82.01;101203.28;4999336;28;20041;-63
2022/01/19 03:18:38;;;;;;;19.92;16.08;;;;;;;3.87;82.13;101201.44;4999481;28;20087;-63
2022/01/19 03:21:08;;;;;;;17.42;13.80;;;;;;;3.86;82.25;101191.97;5032908;28;20041;-63
2022/01/19 03:23:33;;;;;;;18.80;15.23;;;;;;;3.87;82.48;101184.34;4998980;28;20034;-63
2022/01/19 03:26:04;;;;;;;18.40;15.23;;;;;;;3.88;82.86;101191.25;5033701;28;20048;-62
2022/01/19 03:28:29;;;;;;;18.58;14.18;;;;;;;3.88;82.07;101188.69;4999043;28;20030;-63
2022/01/19 03:30:55;;;;;;;19.67;15.75;;;;;;;3.90;82.42;101183.63;5033140;28;20041;-63
2022/01/19 03:33:20;;;;;;;18.58;14.82;;;;;;;3.87;82.06;101179.22;5033225;28;20485;-63
2022/01/19 03:35:46;;;;;;;18.02;15.10;;;;;;;3.89;82.51;101174.19;5032988;28;20507;-63
2022/01/19 03:38:12;;;;;;;23.52;14.93;;;;;;;3.90;82.60;101163.13;5032834;28;20034;-63
2022/01/19 03:40:41;;;;;;;20.25;15.27;;;;;;;3.90;82.04;101165.69;5033452;28;20041;-63
2022/01/19 03:43:09;;;;;;;18.30;13.38;;;;;;;3.86;82.09;101149.22;5032785;28;20082;-62
2022/01/19 03:45:38;;;;;;;20.45;15.60;;;;;;;3.85;82.37;101160.28;4998902;28;20049;-62
2022/01/19 03:48:19;;;;;;;20.65;17.00;;;;;;;3.86;82.52;101156.94;5032908;28;20488;-62
2022/01/19 03:50:45;;;;;;;20.38;15.43;;;;;;;3.88;82.35;101169.88;5033002;28;20546;-62
2022/01/19 03:53:11;;;;;;;20.05;15.88;;;;;;;3.89;82.18;101156.25;4998951;28;20034;-62
2022/01/19 03:55:36;;;;;;;16.75;14.85;;;;;;;3.92;81.99;101164.09;5033026;28;20034;-63
2022/01/19 03:58:02;;;;;;;17.17;14.98;;;;;;;3.95;82.52;101159.16;5032516;28;20126;-62
2022/01/19 04:00:34;;;;;;;18.30;15.30;;;;;;;3.95;82.84;101156.59;5036210;28;20040;-62
2022/01/19 04:03:05;;;;;;;18.60;14.32;;;;;;;3.92;81.99;101146.16;5002490;28;20069;-63
2022/01/19 04:05:53;;;;;;;19.75;15.00;;;;;;;3.90;82.26;101146.06;5036492;28;20120;-63
2022/01/19 04:08:19;;;;;;;19.02;14.93;;;;;;;3.88;82.60;101141.66;5003027;28;20132;-63
2022/01/19 04:10:45;;;;;;;19.42;14.88;;;;;;;3.88;82.64;101139.09;5019347;28;20512;-63
2022/01/19 04:13:29;;;;;;;17.35;14.68;;;;;;;3.90;82.05;101145.16;5036570;28;20030;-63
2022/01/19 04:15:55;;;;;;;22.63;16.13;;;;;;;3.88;81.80;101139.97;5036492;28;20037;-63
2022/01/19 04:18:20;;;;;;;17.98;14.48;;;;;;;3.88;82.04;101134.81;5018879;28;20040;-63
2022/01/19 04:20:50;;;;;;;20.05;16.98;;;;;;;3.88;82.40;101141.66;5036348;28;20573;-63
2022/01/19 04:23:17;;;;;;;22.85;15.50;;;;;;;3.86;82.16;101138.97;5036004;28;20040;-63
2022/01/19 04:25:43;;;;;;;22.30;16.17;;;;;;;3.86;82.42;101141.53;5002097;28;20535;-63
2022/01/19 04:28:08;;;;;;;17.38;15.05;;;;;;;3.86;82.05;101138.09;5018419;28;20037;-63
2022/01/19 04:30:35;;;;;;;22.42;15.65;;;;;;;3.82;81.59;101129.31;5036275;28;20044;-63
2022/01/19 04:33:07;;;;;;;18.27;14.98;;;;;;;3.85;82.05;101124.38;5002462;28;20042;-62
2022/01/19 04:35:44;;;;;;;17.63;15.63;;;;;;;3.85;82.17;101134.63;5002331;28;20041;-63
2022/01/19 05:15:40;;;;;;;;;;;;;;;3.82;82.01;101098.53;5036099;28;20038;-63
2022/01/19 05:18:09;;;;;;;17.65;14.65;;;;;;;3.82;81.57;101093.41;5001008;28;19917;-63
2022/01/19 05:20:34;;;;;;;20.48;15.52;;;;;;;3.83;81.56;101092.63;5017089;28;20033;-62
2022/01/19 05:23:00;;;;;;;19.30;16.02;;;;;;;3.82;82.32;101085.72;5017341;28;20068;-63
2022/01/19 05:25:25;;;;;;;18.85;14.80;;;;;;;3.81;82.06;101078.84;5017706;28;20128;-63
2022/01/19 05:27:51;;;;;;;18.85;15.68;;;;;;;3.83;82.16;101071.22;5034802;28;20397;-63
2022/01/19 05:30:17;;;;;;;18.85;15.60;;;;;;;3.85;81.77;101072.22;5035011;28;20033;-63
2022/01/19 05:32:46;;;;;;;18.08;15.05;;;;;;;3.86;81.77;101067.16;5034919;28;20044;-63
2022/01/19 05:35:15;;;;;;;19.50;16.33;;;;;;;3.87;81.66;101063.81;5034976;28;20040;-63
2022/01/19 05:37:42;;;;;;;19.05;15.38;;;;;;;3.87;82.26;101063.81;5017649;28;20451;-63
2022/01/19 05:40:10;;;;;;;16.63;14.82;;;;;;;3.87;81.91;101056.09;5034607;28;20046;-63
2022/01/19 05:42:36;;;;;;;19.40;15.80;;;;;;;3.87;81.65;101053.53;5001135;28;20048;-63
2022/01/19 05:45:03;;;;;;;18.73;16.17;;;;;;;3.88;81.82;101057.00;5035050;28;20033;-63
2022/01/19 05:47:29;;;;;;;20.00;15.45;;;;;;;3.88;82.29;101045.06;5000553;28;20141;-64
2022/01/19 05:49:55;;;;;;;19.35;14.80;;;;;;;3.87;82.13;101045.84;5034694;28;20191;-62
2022/01/19 05:52:20;;;;;;;22.52;14.82;;;;;;;3.87;82.19;101048.41;5034738;28;20130;-62
2022/01/19 05:54:47;;;;;;;19.45;16.08;;;;;;;3.88;81.83;101034.78;5034495;28;20053;-63
2022/01/19 05:57:13;;;;;;;17.25;14.60;;;;;;;3.88;81.80;101037.38;5034443;28;20481;-62
2022/01/19 05:59:44;;;;;;;18.70;16.25;;;;;;;3.87;81.95;101029.59;5016915;28;20034;-62
2022/01/19 06:02:10;;;;;;;19.55;15.38;;;;;;;3.85;81.88;101026.91;5016510;28;20515;-62
2022/01/19 06:04:35;;;;;;;18.15;15.02;;;;;;;3.86;81.67;101026.13;5034335;28;20072;-63
2022/01/19 06:07:03;;;;;;;17.25;14.93;;;;;;;3.86;81.68;101026.13;5034449;28;20065;-63
2022/01/19 06:09:49;;;;;;;19.80;15.05;;;;;;;3.86;81.28;101015.88;5000601;28;20086;-63
2022/01/19 06:12:16;;;;;;;18.38;16.35;;;;;;;3.88;82.02;101023.66;5016884;28;20059;-63
2022/01/19 06:14:44;;;;;;;18.90;15.40;;;;;;;3.86;81.65;101009.88;5016707;28;20037;-63
2022/01/19 06:17:12;;;;;;;20.75;15.68;;;;;;;3.87;81.82;101014.19;5034702;28;20037;-64
2022/01/19 06:19:39;;;;;;;20.02;15.40;;;;;;;3.87;82.00;101017.63;5000526;28;20056;-63
2022/01/19 06:22:04;;;;;;;19.88;17.33;;;;;;;3.87;82.22;101009.94;5034022;28;20080;-63
2022/01/19 06:24:30;;;;;;;20.90;16.35;;;;;;;3.86;81.92;101007.31;5034258;28;20037;-64
2022/01/19 06:26:55;;;;;;;18.98;16.52;;;;;;;3.85;81.50;101001.28;5034474;28;20472;-63
2022/01/19 06:29:21;;;;;;;19.15;15.85;;;;;;;3.85;82.00;101001.28;5033855;28;20439;-64
2022/01/19 06:31:49;;;;;;;19.73;16.25;;;;;;;3.87;81.74;100994.56;5033756;28;20041;-64
2022/01/19 06:34:15;;;;;;;17.92;15.27;;;;;;;3.87;81.86;100989.41;4999949;28;20402;-64
2022/01/19 06:36:43;;;;;;;20.83;16.13;;;;;;;3.87;81.93;100981.72;5033860;28;20075;-63
2022/01/19 06:39:09;;;;;;;20.17;16.80;;;;;;;3.87;81.83;100976.59;5033733;28;20037;-63
2022/01/19 06:41:35;;;;;;;21.80;19.02;;;;;;;3.86;81.77;100972.25;4999580;28;20033;-64
2022/01/19 06:44:02;;;;;;;18.55;15.82;;;;;;;3.83;82.01;100972.06;4999762;28;20030;-64
2022/01/19 06:46:27;;;;;;;20.83;16.52;;;;;;;3.81;81.54;100969.44;4999694;28;20029;-63
2022/01/19 06:48:53;;;;;;;22.15;17.45;;;;;;;3.79;81.31;100960.75;5034163;28;20164;-64
2022/01/19 06:51:18;;;;;;;20.00;16.55;;;;;;;3.80;81.53;100965.09;5034026;28;20165;-64
2022/01/19 06:53:44;;;;;;;20.80;17.55;;;;;;;3.82;81.39;100962.63;5033508;28;20488;-64
2022/01/19 06:56:10;;;;;;;20.23;16.13;;;;;;;3.79;81.43;100965.91;5033339;28;20119;-63
2022/01/19 06:58:36;;;;;;;19.23;17.13;;;;;;;3.80;81.32;100956.53;5033333;28;20044;-63
2022/01/19 07:01:01;;;;;;;20.00;15.20;;;;;;;3.79;81.52;100962.47;5033433;28;20042;-63
2022/01/19 07:03:26;;;;;;;20.27;17.17;;;;;;;3.79;81.78;100967.59;5033397;28;20045;-64
2022/01/19 07:05:52;;;;;;;21.48;17.17;;;;;;;3.78;81.60;100969.25;5033430;28;20033;-63
2022/01/19 07:08:17;;;;;;;22.83;17.40;;;;;;;3.81;81.74;100972.00;5016017;28;20092;-63
2022/01/19 07:10:43;;;;;;;22.27;17.70;;;;;;;3.80;81.26;100971.94;5033296;28;20033;-63
2022/01/19 07:13:09;;;;;;;19.73;16.67;;;;;;;3.83;81.65;100968.66;5015891;28;20033;-64
2022/01/19 07:15:36;;;;;;;22.83;18.48;;;;;;;3.84;81.50;100968.72;5033383;28;20452;-63
2022/01/19 07:18:02;;;;;;;19.10;16.25;;;;;;;3.86;81.72;100971.41;5033305;28;20034;-63
2022/01/19 07:20:28;;;;;;;22.27;18.02;;;;;;;3.87;81.79;100971.47;4999315;28;20037;-64
2022/01/19 07:22:56;;;;;;;21.50;18.40;;;;;;;3.89;81.53;100969.00;5033342;28;20041;-63
2022/01/19 07:25:25;;;;;;;20.20;16.75;;;;;;;3.90;81.28;100975.88;5033085;28;20037;-64
2022/01/19 07:27:51;;;;;;;22.80;17.88;;;;;;;3.90;81.25;100973.31;4999198;28;20452;-63
2022/01/19 07:30:16;;;;;;;23.80;17.70;;;;;;;3.90;81.82;100974.22;5033210;28;20055;-64
2022/01/19 07:32:42;;;;;;;22.02;17.30;;;;;;;3.90;81.88;100965.63;5033421;28;20060;-64
2022/01/19 07:35:08;;;;;;;21.77;18.30;;;;;;;3.93;81.28;100963.25;5018391;28;20041;-64
2022/01/19 07:37:34;;;;;;;22.40;18.13;;;;;;;3.91;81.53;100968.28;5003129;28;20401;-64
2022/01/19 07:39:59;;;;;;;24.20;19.05;;;;;;;3.92;81.63;100957.25;5037474;28;20033;-62
2022/01/19 07:42:26;;;;;;;24.80;18.33;;;;;;;3.94;81.95;100957.31;5037057;28;20037;-63
2022/01/19 07:44:53;;;;;;;22.20;17.50;;;;;;;3.93;81.51;100955.53;5003027;28;20029;-63
2022/01/19 07:47:18;;;;;;;21.17;17.00;;;;;;;3.93;81.89;100955.53;5003083;28;20128;-63
2022/01/19 07:49:44;;;;;;;23.63;19.05;;;;;;;3.92;81.46;100954.69;5037390;28;20126;-63
2022/01/19 07:52:09;;;;;;;27.95;19.15;;;;;;;3.93;81.31;100945.28;5037120;28;20033;-63
2022/01/19 07:54:35;;;;;;;25.25;19.45;;;;;;;3.94;81.45;100947.06;5002834;28;20512;-62
2022/01/19 07:57:03;;;;;;;23.00;17.38;;;;;;;3.94;81.66;100931.66;5036836;28;20041;-63
2022/01/19 07:59:31;;;;;;;25.27;17.42;;;;;;;3.93;81.32;100929.91;5002490;28;20038;-62
2022/01/19 08:02:01;;;;;;;22.65;18.13;;;;;;;3.92;82.11;100936.72;5002359;28;20481;-62
2022/01/19 08:04:30;;;;;;;24.20;19.50;;;;;;;3.93;81.77;100932.47;5019010;28;20029;-62
2022/01/19 08:07:00;;;;;;;22.35;18.65;;;;;;;3.92;81.88;100925.56;5002437;28;20045;-63
2022/01/19 08:09:35;;;;;;;22.83;17.83;;;;;;;3.93;82.05;100927.31;5002662;28;20040;-63
2022/01/19 08:12:03;;;;;;;22.60;18.38;;;;;;;3.91;82.03;100924.69;5036348;28;20091;-63
2022/01/19 08:14:32;;;;;;;26.73;19.95;;;;;;;3.92;81.70;100929.03;5002917;28;20033;-63
2022/01/19 08:16:58;;;;;;;21.23;18.67;;;;;;;3.91;81.21;100924.69;5002389;28;20481;-63
2022/01/19 08:19:26;;;;;;;27.00;18.77;;;;;;;3.90;81.64;100911.75;5036482;28;20536;-63
2022/01/19 08:21:51;;;;;;;21.98;18.67;;;;;;;3.89;81.54;100910.88;5018813;28;20076;-63
2022/01/19 08:24:17;;;;;;;25.90;18.83;;;;;;;3.91;81.48;100917.00;5035938;28;20065;-63
2022/01/19 08:26:48;;;;;;;24.67;18.75;;;;;;;3.90;81.15;100907.53;5036104;28;20044;-63
2022/01/19 08:29:13;;;;;;;22.10;18.40;;;;;;;3.88;81.12;100915.94;5036104;28;20124;-62
2022/01/19 08:31:39;;;;;;;23.17;18.05;;;;;;;3.87;81.05;100912.47;5002116;28;20129;-63
2022/01/19 08:34:05;;;;;;;23.60;19.05;;;;;;;3.88;81.06;100915.94;5036227;28;20500;-63
2022/01/19 08:36:30;;;;;;;23.48;18.40;;;;;;;3.86;81.49;100913.28;5018371;28;20485;-62
2022/01/19 08:38:57;;;;;;;22.77;19.58;;;;;;;3.84;81.00;100907.16;5035583;28;20124;-62
2022/01/19 08:41:22;;;;;;;22.23;18.15;;;;;;;3.80;81.26;100903.56;5001907;28;20084;-63
2022/01/19 08:43:48;;;;;;;30.20;20.35;;;;;;;3.81;81.24;100914.72;5035852;28;20416;-63
2022/01/19 08:46:14;;;;;;;21.42;17.35;;;;;;;3.79;81.71;100914.59;5001612;28;20033;-62
2022/01/19 08:48:39;;;;;;;24.35;17.95;;;;;;;3.76;81.57;100922.13;5018289;28;20112;-62
2022/01/19 08:51:05;;;;;;;23.88;18.23;;;;;;;3.74;81.44;100913.44;5035978;28;20045;-63
2022/01/19 08:53:32;;;;;;;25.05;18.23;;;;;;;3.74;81.32;100910.00;5035829;28;20033;-62
2022/01/19 08:55:57;;;;;;;23.17;18.30;;;;;;;3.74;81.63;100910.00;5017877;28;20045;-63
2022/01/19 08:58:23;;;;;;;25.55;19.98;;;;;;;3.75;81.55;100916.91;5018058;28;20034;-62
2022/01/19 09:00:48;;;;;;;23.50;19.00;;;;;;;3.74;80.98;100912.56;5035951;28;20385;-62
2022/01/19 09:03:16;;;;;;;25.00;17.77;;;;;;;3.74;81.19;100915.16;5035765;28;20091;-63
2022/01/19 09:05:44;;;;;;;24.05;18.85;;;;;;;3.73;81.24;100913.38;5001791;28;20033;-62
2022/01/19 09:08:09;;;;;;;24.65;19.80;;;;;;;3.74;81.43;100918.56;5035641;28;20034;-63
2022/01/19 09:10:36;;;;;;;24.17;18.63;;;;;;;3.74;81.25;100912.56;5035477;28;20037;-63
2022/01/19 09:13:02;;;;;;;25.65;18.27;;;;;;;3.75;81.68;100917.78;5018285;28;20069;-63
2022/01/19 09:15:30;;;;;;;25.10;19.60;;;;;;;3.75;81.14;100904.97;5035684;28;20045;-63
2022/01/19 09:17:58;;;;;;;22.35;18.40;;;;;;;3.74;81.22;100899.75;5001143;28;20033;-63
2022/01/19 09:20:23;;;;;;;28.52;19.77;;;;;;;3.74;81.05;100894.63;5017445;28;20045;-63
2022/01/19 09:22:51;;;;;;;23.73;19.45;;;;;;;3.74;81.28;100899.75;5035154;28;20195;-63
2022/01/19 09:25:17;;;;;;;22.58;19.73;;;;;;;3.72;81.04;100896.22;5017495;28;20128;-63
2022/01/19 09:27:47;;;;;;;23.45;18.25;;;;;;;3.71;81.11;100897.91;5035198;28;20068;-63
2022/01/19 09:30:16;;;;;;;26.80;19.17;;;;;;;3.71;81.49;100894.44;5001713;28;20041;-63
2022/01/19 09:32:54;;;;;;;23.30;17.67;;;;;;;3.72;80.80;100898.78;5001243;28;20041;-63
2022/01/19 09:35:24;;;;;;;24.73;18.45;;;;;;;3.71;80.80;100890.22;5034794;28;20034;-63
2022/01/19 09:37:51;;;;;;;23.85;19.00;;;;;;;3.72;80.80;100885.97;5000788;28;20033;-63
2022/01/19 09:40:17;;;;;;;21.17;18.55;;;;;;;3.70;81.29;100890.13;5001086;28;20502;-63
2022/01/19 09:42:44;;;;;;;24.35;18.30;;;;;;;3.72;81.43;100883.41;5034797;28;20083;-63
2022/01/19 09:45:13;;;;;;;27.48;18.08;;;;;;;3.71;81.11;100886.75;5034467;28;20409;-63
2022/01/19 09:47:39;;;;;;;22.95;18.08;;;;;;;3.71;81.64;100876.50;5034652;28;20029;-62
2022/01/19 09:50:08;;;;;;;22.20;17.60;;;;;;;3.73;80.99;100877.47;5016894;28;20041;-64
2022/01/19 09:52:37;;;;;;;23.60;17.48;;;;;;;3.72;81.24;100875.72;5001169;28;20034;-63
2022/01/19 09:55:03;;;;;;;24.33;18.92;;;;;;;3.72;81.29;100873.13;5017071;28;20038;-63
2022/01/19 09:57:33;;;;;;;21.40;17.05;;;;;;;3.72;81.21;100873.13;5034162;28;20033;-64
2022/01/19 10:00:04;;;;;;;23.80;18.08;;;;;;;3.73;81.29;100872.34;5000750;28;20133;-62
2022/01/19 10:02:29;;;;;;;25.92;19.92;;;;;;;3.72;81.07;100868.00;5016983;28;20075;-62
2022/01/19 10:05:06;;;;;;;26.17;19.00;;;;;;;3.71;80.91;100861.13;5033972;28;20496;-63
2022/01/19 10:07:31;;;;;;;23.58;17.45;;;;;;;3.72;80.98;100860.31;5016916;28;20515;-62
2022/01/19 10:09:58;;;;;;;26.00;18.42;;;;;;;3.73;80.94;100860.44;5034598;28;20120;-62
2022/01/19 10:18:17;;;;;;;22.20;17.05;;;;;;;3.72;81.44;100855.19;5033876;28;20048;-63
2022/01/19 10:21:03;;;;;;;24.77;18.65;;;;;;;3.72;81.24;100845.84;5016556;28;20033;-62
2022/01/19 10:23:39;;;;;;;22.50;17.77;;;;;;;3.72;80.96;100844.94;5034261;28;20040;-63
2022/01/19 10:26:07;;;;;;;25.02;18.77;;;;;;;3.72;81.00;100842.38;4999911;28;20489;-63
2022/01/19 10:28:54;;;;;;;29.55;19.27;;;;;;;3.70;81.26;100829.47;4999991;28;20048;-62
2022/01/19 10:31:19;;;;;;;28.38;18.30;;;;;;;3.71;81.46;100815.88;5033880;28;20108;-62
2022/01/19 10:34:09;;;;;;;27.65;19.17;;;;;;;3.70;81.54;100833.72;5034013;28;20061;-63
2022/01/19 10:36:49;;;;;;;25.08;19.60;;;;;;;3.72;81.16;100832.13;5000177;28;20127;-63
2022/01/19 10:39:16;;;;;;;25.67;19.92;;;;;;;3.72;81.15;100832.13;5016538;28;20037;-63
2022/01/19 10:42:07;;;;;;;23.17;19.00;;;;;;;3.71;81.44;100831.25;5016265;28;20045;-62
2022/01/19 10:44:33;;;;;;;21.65;17.92;;;;;;;3.72;80.95;100820.19;4999377;28;20457;-62
2022/01/19 10:46:58;;;;;;;26.20;20.25;;;;;;;3.72;81.00;100815.06;5033560;28;20121;-62
2022/01/19 10:49:25;;;;;;;23.05;18.90;;;;;;;3.71;81.02;100800.47;5033619;28;20048;-63
2022/01/19 10:51:57;;;;;;;24.75;19.02;;;;;;;3.73;80.69;100806.59;4999645;28;20095;-62
2022/01/19 10:54:26;;;;;;;23.70;19.23;;;;;;;3.72;80.78;100809.03;5033659;28;20037;-63
2022/01/19 10:56:57;;;;;;;24.65;18.52;;;;;;;3.74;80.61;100802.31;5015877;28;20034;-62
2022/01/19 10:59:29;;;;;;;28.27;20.70;;;;;;;3.73;80.72;100796.31;4999249;28;20037;-62
2022/01/19 11:01:57;;;;;;;29.80;18.85;;;;;;;3.73;81.02;100791.19;5033668;28;20095;-62
2022/01/19 11:04:32;;;;;;;29.05;19.95;;;;;;;3.74;80.60;100784.38;5033494;28;20068;-63
2022/01/19 11:07:01;;;;;;;24.23;19.17;;;;;;;3.73;80.67;100785.16;4999479;28;20448;-63
2022/01/19 11:09:28;;;;;;;23.42;18.05;;;;;;;3.74;81.21;100779.25;4998785;28;20155;-63
2022/01/19 11:11:58;;;;;;;25.45;19.33;;;;;;;3.74;81.29;100779.25;5033188;28;20037;-63
2022/01/19 11:14:25;;;;;;;29.02;20.58;;;;;;;3.74;81.37;100782.69;5033412;28;20034;-63
2022/01/19 11:16:52;;;;;;;28.20;19.75;;;;;;;3.74;81.35;100782.69;5033431;28;20501;-64
2022/01/19 11:19:18;;;;;;;24.60;18.67;;;;;;;3.75;80.85;100775.88;4999150;28;20053;-64
2022/01/19 11:21:54;;;;;;;25.77;18.52;;;;;;;3.74;80.65;100771.56;4999199;28;20191;-64
2022/01/19 11:24:32;;;;;;;30.30;20.73;;;;;;;3.75;80.92;100768.19;4998722;28;20176;-63
2022/01/19 11:26:58;;;;;;;25.88;19.90;;;;;;;3.73;80.79;100755.31;4999601;28;20412;-63
2022/01/19 11:29:24;;;;;;;25.85;18.75;;;;;;;3.74;81.10;100753.59;5015555;28;20121;-64
2022/01/19 11:31:53;;;;;;;28.80;19.77;;;;;;;3.74;80.87;100761.28;5015517;28;20045;-63
2022/01/19 11:34:57;;;;;;;27.90;20.08;;;;;;;3.74;81.12;100759.59;4999233;28;20037;-63
2022/01/19 11:37:41;;;;;;;33.33;20.00;;;;;;;3.72;80.84;100762.88;4991865;28;20053;-64
2022/01/19 11:40:20;;;;;;;23.92;18.40;;;;;;;3.71;81.03;100756.00;4975446;28;20038;-64
2022/01/19 11:42:46;;;;;;;25.77;18.23;;;;;;;3.72;80.55;100742.38;5002554;28;20053;-63
2022/01/19 11:45:34;;;;;;;24.60;19.85;;;;;;;3.71;80.85;100743.16;5015270;28;20086;-62
2022/01/19 11:48:15;;;;;;;26.13;18.92;;;;;;;3.70;80.79;100739.75;5015664;28;20491;-63
2022/01/19 11:50:41;;;;;;;25.05;18.88;;;;;;;3.71;81.44;100740.59;5033098;28;20034;-62
2022/01/19 11:53:10;;;;;;;28.08;19.02;;;;;;;3.71;81.06;100732.91;5033081;28;20034;-62
2022/01/19 11:55:38;;;;;;;27.17;20.05;;;;;;;3.71;81.18;100727.78;4998780;28;20030;-63
2022/01/19 11:58:14;;;;;;;26.65;18.02;;;;;;;3.69;80.58;100721.69;5015309;28;20163;-62
2022/01/19 12:00:44;;;;;;;24.83;19.08;;;;;;;3.71;80.71;100723.56;5032867;28;20080;-63
2022/01/19 12:03:28;;;;;;;25.92;18.77;;;;;;;3.69;81.21;100714.91;4998662;28;20128;-62
2022/01/19 12:05:55;;;;;;;30.42;19.75;;;;;;;3.70;80.67;100706.41;4999135;28;20079;-63
2022/01/19 12:08:28;;;;;;;27.48;20.20;;;;;;;3.70;80.90;100697.81;5015237;28;20543;-63
2022/01/19 12:10:58;;;;;;;26.25;20.20;;;;;;;3.70;81.09;100706.41;4998839;28;20481;-63
2022/01/19 12:16:03;;;;;;;26.30;20.40;;;;;;;3.71;81.10;100699.59;5014946;28;20064;-63
2022/01/19 12:18:49;;;;;;;29.98;21.05;;;;;;;3.68;81.09;100692.63;4998645;28;20042;-62
2022/01/19 12:21:39;;;;;;;30.35;20.27;;;;;;;3.69;80.78;100694.38;5001574;28;20510;-62
2022/01/19 12:24:25;;;;;;;31.27;21.00;;;;;;;3.70;81.14;100697.81;5036744;28;20034;-63
2022/01/19 12:27:02;;;;;;;25.50;18.83;;;;;;;3.70;81.11;100692.69;5002275;28;20041;-63
2022/01/19 12:29:36;;;;;;;26.63;21.73;;;;;;;3.69;81.08;100694.38;5002227;28;20041;-63
2022/01/19 12:32:24;;;;;;;30.17;19.55;;;;;;;3.68;81.11;100691.72;5002481;28;20409;-63
2022/01/19 12:34:55;;;;;;;28.08;20.23;;;;;;;3.68;80.92;100686.59;5034746;28;20042;-63
2022/01/19 12:37:27;;;;;;;26.95;20.20;;;;;;;3.68;81.59;100678.91;5036123;28;20099;-63
2022/01/19 12:39:54;;;;;;;31.63;21.02;;;;;;;3.69;80.75;100683.22;5002056;28;20449;-64
2022/01/19 12:42:27;;;;;;;30.60;21.20;;;;;;;3.69;80.68;100676.44;5001931;28;20037;-63
2022/01/19 12:44:57;;;;;;;30.92;21.98;;;;;;;3.69;81.50;100681.56;5018618;28;20037;-63
2022/01/19 12:47:29;;;;;;;28.45;20.70;;;;;;;3.69;80.76;100683.22;5001879;28;20037;-63
2022/01/19 12:50:07;;;;;;;33.90;22.90;;;;;;;3.69;81.28;100672.97;5035730;28;20196;-63
2022/01/19 12:52:39;;;;;;;26.70;20.67;;;;;;;3.69;81.20;100671.31;5002361;28;20041;-62
2022/01/19 12:55:15;;;;;;;32.70;22.88;;;;;;;3.68;81.26;100671.22;5035934;28;20033;-62
2022/01/19 12:57:41;;;;;;;34.20;22.42;;;;;;;3.69;81.18;100662.72;5002088;28;20079;-62
2022/01/19 13:00:14;;;;;;;28.10;21.50;;;;;;;3.66;81.44;100664.31;5001971;28;20045;-63